Station: Cummins Airport

  Atmospheric Gas Attenuation - ITU Rec 676-11   --------------- db/100km ---------------
Date Time Temp RH % AH g/m3 Dew Point Wind Direction Speed kph Gust kph Barometer mB Rainfall Since 9am 24GHz 47GHz 76GHz 122GHz 134GHz 241GHz
24 20:20 34.9 16 6.3 5.4 17 19 1002 0 13.9 17.5 23.7 62.0 53.1 181.8
24 20:10 35.7 15 6.15 5.1 15 17 1001.9 0 13.6 17.2 23.1 60.3 51.2 175.4
24 20:00 35.9 15 6.22 5.2 20 26 1001.9 0 13.8 17.3 23.3 60.7 51.7 177.2
24 19:50 36 15 6.25 5.3 19 22 1001.7 0 13.8 17.3 23.3 60.8 51.9 177.9
24 19:40 36.1 14 5.86 4.4 24 26 1001.7 0 13.0 16.8 22.2 57.9 48.4 165.4
24 19:30 36.2 14 5.89 4.5 24 33 1001.6 0 13.1 16.8 22.3 58.1 48.6 166.2
24 19:20 36.8 14 6.08 4.9 28 32 1001.5 0 13.4 17.0 22.6 59.0 49.9 170.9
24 19:10 37.1 14 6.17 5.2 26 30 1001.5 0 13.6 17.0 22.8 59.5 50.5 173.1
24 19:00 37.4 13 5.82 4.4 30 39 1001.5 0 12.9 16.6 21.8 56.8 47.3 161.7
24 18:50 37.7 13 5.91 4.6 28 33 1001.5 0 13.1 16.6 21.9 57.2 47.9 163.9
24 18:40 37.4 13 5.82 4.4 32 41 1001.4 0 12.9 16.6 21.8 56.8 47.3 161.7
24 18:30 38 13 6 4.8 32 43 1001.3 0 13.2 16.7 22.1 57.6 48.5 166.1
24 18:20 38.4 12 5.65 4 30 35 1001.4 0 12.5 16.2 21.1 54.9 45.3 154.7
24 18:10 38.2 12 5.6 3.8 20 30 1001.4 0 12.4 16.2 21.0 54.7 45.0 153.6
24 18:00 38.2 12 5.6 3.8 26 35 1001.4 0 12.4 16.2 21.0 54.7 45.0 153.6
24 17:50 38.1 12 5.57 3.8 26 32 1001.3 0 12.4 16.2 21.0 54.6 44.8 152.8
24 17:40 39.6 12 6.01 4.9 22 24 1001.3 0 13.2 16.4 21.7 56.7 47.7 163.4
24 17:30 38.3 12 5.63 3.9 28 35 1001.3 0 12.5 16.2 21.1 54.9 45.2 154.3
24 17:20 39.1 12 5.86 4.5 24 28 1001.4 0 12.9 16.3 21.5 56.0 46.7 159.8
24 17:10 38.1 13 6.03 4.9 30 35 1001.5 0 13.3 16.7 22.2 57.8 48.7 166.9
24 17:00 39.3 12 5.92 4.7 28 41 1001.6 0 13.0 16.4 21.6 56.3 47.1 161.3
24 16:50 39.7 11 5.53 3.7 30 37 1001.7 0 12.2 15.9 20.5 53.3 43.6 149.0
24 16:40 40.4 11 5.73 4.3 24 32 1001.6 0 12.6 16.0 20.8 54.3 44.9 153.7
24 16:30 39.5 11 5.48 3.6 26 43 1001.6 0 12.1 15.9 20.4 53.1 43.3 147.8
24 16:20 38.9 13 6.28 5.5 17 17 1001.5 0 13.8 16.8 22.6 59.0 50.4 173.0
24 16:10 38.8 14 6.73 6.5 17 19 1001.7 0 14.7 17.3 23.8 62.3 54.5 187.1
24 16:00 38.1 14 6.5 6 20 28 1001.9 0 14.2 17.2 23.4 61.2 52.9 181.5
24 15:50 39.1 13 6.35 5.7 19 22 1002 0 13.9 16.9 22.8 59.4 51.0 174.8
24 15:40 39.2 13 6.38 5.7 20 24 1002 0 14.0 16.9 22.8 59.6 51.2 175.5
24 15:30 39.2 12 5.89 4.6 17 26 1002.1 0 13.0 16.4 21.5 56.2 46.9 160.6
24 15:20 38.5 12 5.68 4.1 20 26 1002.3 0 12.6 16.3 21.2 55.2 45.5 155.6
24 15:10 38.9 11 5.32 3.1 24 30 1002.4 0 11.8 15.8 20.2 52.4 42.3 144.2
24 15:00 38.6 10 4.76 1.6 20 32 1002.4 0 10.7 15.3 18.8 48.8 37.8 128.2
24 14:50 39.4 13 6.44 5.9 17 22 1002.4 0 14.1 16.9 22.9 59.9 51.6 177.0
24 14:40 40.2 13 6.71 6.5 22 30 1002.5 0 14.6 17.1 23.4 61.2 53.5 183.6
24 14:30 38.3 15 7.03 7.1 22 30 1002.6 0 15.3 17.8 24.8 64.9 57.5 197.8
24 14:20 38.5 15 7.1 7.3 22 26 1002.8 0 15.4 17.8 25.0 65.3 58.0 199.6
24 14:10 38.5 16 7.58 8.2 20 26 1002.8 0 16.4 18.4 26.3 68.8 62.4 214.9
24 14:00 37.6 15 6.78 6.6 19 28 1003 0 14.8 17.6 24.3 63.6 55.7 191.5
24 13:50 38 13 6 4.8 17 19 1003.1 0 13.2 16.7 22.2 57.8 48.6 166.4
24 13:40 38 13 6 4.8 22 24 1003.2 0 13.2 16.7 22.2 57.8 48.6 166.4
24 13:30 37.8 13 5.94 4.7 20 28 1003.3 0 13.1 16.7 22.0 57.5 48.2 164.9
24 13:20 38.5 13 6.16 5.2 22 28 1003.4 0 13.5 16.8 22.5 58.6 49.7 170.4
24 13:10 36.7 14 6.05 4.9 13 15 1003.4 0 13.4 17.0 22.6 59.0 49.8 170.5
24 13:00 36.7 14 6.05 4.9 17 26 1003.5 0 13.4 17.0 22.6 59.0 49.8 170.5
24 12:50 36.6 15 6.45 5.8 11 15 1003.6 0 14.2 17.5 23.7 62.0 53.4 183.3
24 12:40 36.6 14 6.02 4.8 15 17 1003.6 0 13.3 17.0 22.6 58.9 49.6 169.8
24 12:30 36.2 16 6.73 6.4 20 28 1003.6 0 14.8 17.8 24.6 64.3 56.2 193.1
24 12:20 37.1 16 7.05 7.1 26 28 1003.7 0 15.4 18.0 25.3 66.0 58.6 201.4
24 12:10 36.2 17 7.16 7.3 22 28 1003.7 0 15.7 18.3 25.8 67.6 60.2 207.1
24 12:00 36 20 8.33 9.5 26 35 1003.8 0 18.0 19.8 29.3 76.7 71.5 246.7
24 11:50 35.7 20 8.2 9.3 22 24 1003.8 0 17.8 19.7 29.0 76.0 70.5 243.1
24 11:40 35.1 21 8.35 9.5 28 32 1003.9 0 18.1 20.0 29.6 77.7 72.4 250.0
24 11:30 34.7 21 8.18 9.2 24 33 1003.9 0 17.8 19.8 29.3 76.7 71.1 245.3
24 11:20 35.3 18 7.23 7.4 22 24 1004 0 15.8 18.6 26.3 68.8 61.5 211.6
24 11:10 35.9 15 6.22 5.2 24 28 1003.7 0 13.8 17.3 23.3 60.8 51.8 177.5
24 11:00 36.4 12 5.1 2.5 17 26 1004 0 11.5 16.0 20.2 52.5 41.7 141.8
24 10:50 35.7 12 4.92 1.9 13 15 1004 0 11.1 15.9 19.9 51.7 40.5 137.5
24 10:40 34.8 13 5.09 2.3 9 11 1003.9 0 11.5 16.3 20.6 53.4 42.4 144.1
24 10:30 34.5 15 5.78 4.1 7 13 1003.8 0 12.9 17.1 22.5 58.6 48.7 166.3
24 10:20 34.1 15 5.66 3.8 7 7 1003.8 0 12.7 17.0 22.3 58.0 47.8 163.2
24 10:10 33.3 17 6.15 5 4 7 1004 0 13.7 17.7 23.8 62.2 52.8 180.7
24 10:00 32.8 18 6.34 5.4 9 11 1003.8 0 14.1 18.0 24.5 64.0 54.9 188.0
24 09:50 32.3 19 6.52 5.7 11 13 1003.8 0 14.5 18.3 25.2 65.7 56.9 195.1
24 09:40 31.5 20 6.58 5.8 9 11 1003.8 0 14.6 18.6 25.6 66.8 58.0 198.9
24 09:30 30.8 22 6.97 6.6 7 11 1004 0 15.5 19.2 26.9 70.5 62.3 214.1
24 09:20 30.4 23 7.13 7 7 9 1004.2 0 15.8 19.5 27.6 72.1 64.3 220.7
24 09:10 30 23 6.98 6.6 7 7 1004.2 0 15.5 19.4 27.2 71.2 63.1 216.5
24 09:00 29.9 24 7.24 7.2 9 11 1004.1 0 16.1 19.7 28.1 73.4 65.7 225.9
24 08:50 29.6 24 7.12 6.9 9 9 1004.2 0 15.8 19.6 27.8 72.7 64.8 222.5
24 08:40 29.3 24 7.01 6.7 7 9 1004.1 0 15.6 19.5 27.6 72.1 63.9 219.3
24 08:30 29.3 24 7.01 6.7 11 13 1004.2 0 15.6 19.5 27.6 72.1 63.9 219.4
24 08:20 29.3 24 7.01 6.7 11 13 1004.2 0 15.6 19.5 27.6 72.1 63.9 219.4
24 08:10 28.9 24 6.86 6.3 13 15 1004.2 0 15.3 19.4 27.2 71.2 62.7 215.1
24 08:00 28.3 23 6.36 5.2 9 11 1004.2 0 14.3 18.9 25.9 67.6 58.1 198.9
24 07:50 27.5 25 6.61 5.7 11 13 1004.1 0 14.8 19.4 26.9 70.3 61.2 209.7
24 07:40 27.4 25 6.58 5.6 0 4 1004.2 0 14.8 19.4 26.9 70.2 61.0 208.9
24 07:30 27.4 25 6.58 5.6 7 11 1004 0 14.8 19.4 26.8 70.1 61.0 208.9
24 07:20 27.6 24 6.39 5.2 9 11 1004.3 0 14.4 19.1 26.2 68.4 58.9 201.7
24 07:10 27.8 23 6.19 4.8 19 22 1003.9 0 14.0 18.8 25.5 66.6 56.7 194.1
24 07:00 28.8 18 5.11 2.1 17 28 1003.9 0 11.7 17.3 22.1 57.4 45.7 155.1
24 06:50 29.6 16 4.75 1.1 11 13 1003.4 0 10.9 16.8 20.9 54.1 41.9 141.9
24 06:40 30 16 4.85 1.5 9 11 1003.3 0 11.1 16.8 21.0 54.6 42.6 144.4
24 06:30 31 15 4.8 1.4 15 30 1002.9 0 11.0 16.6 20.6 53.6 41.6 141.1
24 06:20 29.9 15 4.53 0.5 9 11 1002.7 0 10.5 16.4 20.2 52.3 39.7 134.2
24 06:10 31.2 14 4.53 0.6 13 15 1003 0 10.4 16.2 19.9 51.5 39.1 132.2
24 06:00 30.7 14 4.41 0.2 6 15 1002.9 0 10.2 16.2 19.6 50.9 38.2 129.2
24 05:50 31.2 14 4.53 0.6 7 9 1002.9 0 10.4 16.2 19.9 51.5 39.1 132.2
24 05:40 31.5 13 4.27 -0.2 11 13 1002.8 0 9.9 15.9 19.1 49.5 36.6 123.6
24 05:30 32 13 4.39 0.2 15 24 1002.8 0 10.1 15.9 19.3 50.0 37.5 126.6
24 05:20 32.6 12 4.18 -0.5 20 22 1002.9 0 9.7 15.6 18.6 48.2 35.4 119.3
24 04:50 32.4 13 4.48 0.5 24 32 1002.3 0 10.3 16.0 19.4 50.4 38.1 128.8
24 04:40 31.9 14 4.7 1.1 24 33 1002.5 0 10.8 16.3 20.1 52.3 40.3 136.4
24 04:30 32.4 14 4.83 1.5 19 30 1002.5 0 11.0 16.3 20.4 52.9 41.2 139.7
24 04:20 31.7 15 4.99 1.9 17 19 1002.7 0 11.4 16.6 21.0 54.5 43.0 146.0
24 04:10 32.3 14 4.8 1.4 9 13 1002.8 0 11.0 16.3 20.3 52.8 41.0 139.0
24 04:00 32 15 5.07 2.1 19 26 1002.8 0 11.5 16.7 21.1 54.9 43.6 148.1
24 03:50 31.5 16 5.26 2.7 17 19 1002.7 0 11.9 17.0 21.8 56.7 45.5 155.0
24 03:40 30.9 17 5.41 3 13 15 1002.9 0 12.3 17.3 22.4 58.2 47.3 161.0
24 03:30 30.8 18 5.7 3.8 17 28 1003.4 0 12.9 17.6 23.2 60.5 50.1 170.9

Last Refresh: 24-Jan-2021 20:36:25

Most of the information presented on this site is sourced from the Bureau of Meteorology.  Copyright in all material sourced from the Bureau of Meteorology resides with the Commonwealth of Australia.